sensor_id;sensor_type;location;lat;lon;timestamp;P1;durP1;ratioP1;P2;durP2;ratioP2
27383;SDS011;14851;51.166;4.760;2023-04-29T00:01:13;36.30;;;25.33;;
27383;SDS011;14851;51.166;4.760;2023-04-29T00:03:39;35.97;;;25.70;;
27383;SDS011;14851;51.166;4.760;2023-04-29T00:06:17;39.97;;;27.60;;
27383;SDS011;14851;51.166;4.760;2023-04-29T00:08:43;37.88;;;26.80;;
27383;SDS011;14851;51.166;4.760;2023-04-29T00:11:11;41.47;;;28.45;;
27383;SDS011;14851;51.166;4.760;2023-04-29T00:13:37;39.78;;;28.20;;
27383;SDS011;14851;51.166;4.760;2023-04-29T00:16:05;35.30;;;26.40;;
27383;SDS011;14851;51.166;4.760;2023-04-29T00:18:31;37.10;;;26.42;;
27383;SDS011;14851;51.166;4.760;2023-04-29T00:20:57;41.05;;;27.88;;
27383;SDS011;14851;51.166;4.760;2023-04-29T00:23:23;39.60;;;27.88;;
27383;SDS011;14851;51.166;4.760;2023-04-29T00:25:49;43.05;;;28.25;;
27383;SDS011;14851;51.166;4.760;2023-04-29T00:28:17;42.47;;;28.95;;
27383;SDS011;14851;51.166;4.760;2023-04-29T00:30:45;43.75;;;29.67;;
27383;SDS011;14851;51.166;4.760;2023-04-29T00:33:17;39.65;;;29.60;;
27383;SDS011;14851;51.166;4.760;2023-04-29T00:35:42;45.15;;;29.98;;
27383;SDS011;14851;51.166;4.760;2023-04-29T00:38:08;43.30;;;28.92;;
27383;SDS011;14851;51.166;4.760;2023-04-29T00:40:34;40.08;;;29.75;;
27383;SDS011;14851;51.166;4.760;2023-04-29T00:43:01;41.28;;;28.65;;
27383;SDS011;14851;51.166;4.760;2023-04-29T00:45:28;41.83;;;29.50;;
27383;SDS011;14851;51.166;4.760;2023-04-29T00:47:56;42.00;;;28.42;;
27383;SDS011;14851;51.166;4.760;2023-04-29T00:50:24;41.72;;;29.90;;
27383;SDS011;14851;51.166;4.760;2023-04-29T00:52:50;41.17;;;29.75;;
27383;SDS011;14851;51.166;4.760;2023-04-29T00:55:19;41.17;;;30.00;;
27383;SDS011;14851;51.166;4.760;2023-04-29T00:57:48;40.50;;;29.88;;
27383;SDS011;14851;51.166;4.760;2023-04-29T01:00:17;38.35;;;29.17;;
27383;SDS011;14851;51.166;4.760;2023-04-29T01:02:44;39.60;;;29.10;;
27383;SDS011;14851;51.166;4.760;2023-04-29T01:05:11;38.15;;;28.45;;
27383;SDS011;14851;51.166;4.760;2023-04-29T01:10:10;37.25;;;29.00;;
27383;SDS011;14851;51.166;4.760;2023-04-29T01:12:45;37.10;;;27.45;;
27383;SDS011;14851;51.166;4.760;2023-04-29T01:15:27;37.65;;;30.40;;
27383;SDS011;14851;51.166;4.760;2023-04-29T01:17:57;36.63;;;28.27;;
27383;SDS011;14851;51.166;4.760;2023-04-29T01:20:28;35.53;;;27.75;;
27383;SDS011;14851;51.166;4.760;2023-04-29T01:22:56;36.05;;;30.88;;
27383;SDS011;14851;51.166;4.760;2023-04-29T01:25:22;42.75;;;31.25;;
27383;SDS011;14851;51.166;4.760;2023-04-29T01:36:23;47.58;;;36.05;;
27383;SDS011;14851;51.166;4.760;2023-04-29T01:39:13;41.88;;;34.80;;
27383;SDS011;14851;51.166;4.760;2023-04-29T01:44:36;44.28;;;35.63;;
27383;SDS011;14851;51.166;4.760;2023-04-29T01:47:06;46.67;;;37.63;;
27383;SDS011;14851;51.166;4.760;2023-04-29T01:49:42;47.90;;;36.15;;
27383;SDS011;14851;51.166;4.760;2023-04-29T01:52:11;47.13;;;36.88;;
27383;SDS011;14851;51.166;4.760;2023-04-29T01:54:38;42.38;;;33.33;;
27383;SDS011;14851;51.166;4.760;2023-04-29T01:57:05;49.95;;;36.85;;
27383;SDS011;14851;51.166;4.760;2023-04-29T01:59:44;45.77;;;34.93;;
27383;SDS011;14851;51.166;4.760;2023-04-29T02:02:32;49.10;;;36.58;;
27383;SDS011;14851;51.166;4.760;2023-04-29T02:05:08;45.38;;;35.28;;
27383;SDS011;14851;51.166;4.760;2023-04-29T02:07:38;53.75;;;38.22;;
27383;SDS011;14851;51.166;4.760;2023-04-29T02:10:04;49.08;;;35.95;;
27383;SDS011;14851;51.166;4.760;2023-04-29T02:12:36;39.03;;;30.77;;
27383;SDS011;14851;51.166;4.760;2023-04-29T02:15:02;48.75;;;36.72;;
27383;SDS011;14851;51.166;4.760;2023-04-29T02:17:28;48.00;;;36.47;;
27383;SDS011;14851;51.166;4.760;2023-04-29T02:19:55;46.70;;;35.85;;
27383;SDS011;14851;51.166;4.760;2023-04-29T02:24:55;42.70;;;33.08;;
27383;SDS011;14851;51.166;4.760;2023-04-29T02:27:22;49.60;;;36.58;;
27383;SDS011;14851;51.166;4.760;2023-04-29T02:29:48;51.28;;;38.03;;
27383;SDS011;14851;51.166;4.760;2023-04-29T02:32:15;49.40;;;35.70;;
27383;SDS011;14851;51.166;4.760;2023-04-29T02:34:44;57.63;;;38.42;;
27383;SDS011;14851;51.166;4.760;2023-04-29T02:37:10;51.30;;;36.42;;
27383;SDS011;14851;51.166;4.760;2023-04-29T02:39:38;49.10;;;36.38;;
27383;SDS011;14851;51.166;4.760;2023-04-29T02:42:07;54.50;;;36.55;;
27383;SDS011;14851;51.166;4.760;2023-04-29T02:44:34;51.38;;;37.55;;
27383;SDS011;14851;51.166;4.760;2023-04-29T02:47:00;52.35;;;37.55;;
27383;SDS011;14851;51.166;4.760;2023-04-29T02:49:28;52.05;;;37.92;;
27383;SDS011;14851;51.166;4.760;2023-04-29T02:51:55;50.88;;;36.70;;
27383;SDS011;14851;51.166;4.760;2023-04-29T02:54:24;49.92;;;35.65;;
27383;SDS011;14851;51.166;4.760;2023-04-29T02:56:50;49.40;;;36.97;;
27383;SDS011;14851;51.166;4.760;2023-04-29T02:59:19;52.22;;;37.05;;
27383;SDS011;14851;51.166;4.760;2023-04-29T03:01:47;47.35;;;36.25;;
27383;SDS011;14851;51.166;4.760;2023-04-29T03:04:13;52.40;;;36.03;;
27383;SDS011;14851;51.166;4.760;2023-04-29T03:06:39;50.15;;;36.78;;
27383;SDS011;14851;51.166;4.760;2023-04-29T03:11:36;55.58;;;35.28;;
27383;SDS011;14851;51.166;4.760;2023-04-29T03:14:03;48.92;;;35.72;;
27383;SDS011;14851;51.166;4.760;2023-04-29T03:16:29;52.38;;;32.13;;
27383;SDS011;14851;51.166;4.760;2023-04-29T03:18:58;54.45;;;37.03;;
27383;SDS011;14851;51.166;4.760;2023-04-29T03:21:24;56.38;;;36.80;;
27383;SDS011;14851;51.166;4.760;2023-04-29T03:23:51;55.92;;;37.90;;
27383;SDS011;14851;51.166;4.760;2023-04-29T03:26:23;66.07;;;36.67;;
27383;SDS011;14851;51.166;4.760;2023-04-29T03:28:50;55.97;;;36.63;;
27383;SDS011;14851;51.166;4.760;2023-04-29T03:31:16;52.17;;;36.92;;
27383;SDS011;14851;51.166;4.760;2023-04-29T03:33:43;56.17;;;36.40;;
27383;SDS011;14851;51.166;4.760;2023-04-29T03:36:09;63.05;;;37.92;;
27383;SDS011;14851;51.166;4.760;2023-04-29T03:38:39;52.42;;;37.28;;
27383;SDS011;14851;51.166;4.760;2023-04-29T03:41:05;52.47;;;37.63;;
27383;SDS011;14851;51.166;4.760;2023-04-29T03:43:31;56.65;;;36.33;;
27383;SDS011;14851;51.166;4.760;2023-04-29T03:46:00;57.53;;;36.65;;
27383;SDS011;14851;51.166;4.760;2023-04-29T03:48:26;57.47;;;36.90;;
27383;SDS011;14851;51.166;4.760;2023-04-29T03:50:52;59.80;;;37.13;;
27383;SDS011;14851;51.166;4.760;2023-04-29T03:53:19;54.60;;;37.55;;
27383;SDS011;14851;51.166;4.760;2023-04-29T03:55:48;57.58;;;37.40;;
27383;SDS011;14851;51.166;4.760;2023-04-29T03:58:15;59.78;;;38.20;;
27383;SDS011;14851;51.166;4.760;2023-04-29T04:00:44;56.08;;;38.05;;
27383;SDS011;14851;51.166;4.760;2023-04-29T04:03:16;57.40;;;39.03;;
27383;SDS011;14851;51.166;4.760;2023-04-29T04:05:44;55.80;;;39.42;;
27383;SDS011;14851;51.166;4.760;2023-04-29T04:08:15;60.40;;;39.53;;
27383;SDS011;14851;51.166;4.760;2023-04-29T04:10:50;58.15;;;37.95;;
27383;SDS011;14851;51.166;4.760;2023-04-29T04:13:31;60.00;;;38.67;;
27383;SDS011;14851;51.166;4.760;2023-04-29T04:15:57;60.22;;;39.35;;
27383;SDS011;14851;51.166;4.760;2023-04-29T04:18:23;53.72;;;39.33;;
27383;SDS011;14851;51.166;4.760;2023-04-29T04:20:49;59.13;;;40.35;;
27383;SDS011;14851;51.166;4.760;2023-04-29T04:23:15;56.22;;;38.63;;
27383;SDS011;14851;51.166;4.760;2023-04-29T04:25:47;57.53;;;39.95;;
27383;SDS011;14851;51.166;4.760;2023-04-29T04:28:37;53.00;;;39.92;;
27383;SDS011;14851;51.166;4.760;2023-04-29T04:31:09;50.72;;;36.33;;
27383;SDS011;14851;51.166;4.760;2023-04-29T04:33:35;54.90;;;39.13;;
27383;SDS011;14851;51.166;4.760;2023-04-29T04:36:01;58.63;;;40.65;;
27383;SDS011;14851;51.166;4.760;2023-04-29T04:38:27;57.65;;;38.83;;
27383;SDS011;14851;51.166;4.760;2023-04-29T04:40:53;53.60;;;38.83;;
27383;SDS011;14851;51.166;4.760;2023-04-29T04:43:30;52.00;;;33.50;;
27383;SDS011;14851;51.166;4.760;2023-04-29T04:45:56;52.67;;;36.78;;
27383;SDS011;14851;51.166;4.760;2023-04-29T04:48:23;46.42;;;34.20;;
27383;SDS011;14851;51.166;4.760;2023-04-29T04:50:50;58.05;;;37.45;;
27383;SDS011;14851;51.166;4.760;2023-04-29T04:53:16;51.10;;;38.53;;
27383;SDS011;14851;51.166;4.760;2023-04-29T04:55:49;50.63;;;36.25;;
27383;SDS011;14851;51.166;4.760;2023-04-29T04:58:15;47.08;;;34.70;;
27383;SDS011;14851;51.166;4.760;2023-04-29T05:00:44;46.17;;;32.72;;
27383;SDS011;14851;51.166;4.760;2023-04-29T05:03:10;45.70;;;35.78;;
27383;SDS011;14851;51.166;4.760;2023-04-29T05:05:36;43.83;;;34.25;;
27383;SDS011;14851;51.166;4.760;2023-04-29T05:08:02;44.50;;;34.38;;
27383;SDS011;14851;51.166;4.760;2023-04-29T05:10:35;50.65;;;34.28;;
27383;SDS011;14851;51.166;4.760;2023-04-29T05:13:02;45.33;;;33.75;;
27383;SDS011;14851;51.166;4.760;2023-04-29T05:15:27;41.72;;;33.33;;
27383;SDS011;14851;51.166;4.760;2023-04-29T05:17:57;45.33;;;33.58;;
27383;SDS011;14851;51.166;4.760;2023-04-29T05:20:23;41.22;;;32.70;;
27383;SDS011;14851;51.166;4.760;2023-04-29T05:22:54;41.88;;;32.58;;
27383;SDS011;14851;51.166;4.760;2023-04-29T05:25:21;45.20;;;32.63;;
27383;SDS011;14851;51.166;4.760;2023-04-29T05:27:47;39.15;;;31.27;;
27383;SDS011;14851;51.166;4.760;2023-04-29T05:30:18;40.17;;;31.83;;
27383;SDS011;14851;51.166;4.760;2023-04-29T05:32:45;42.63;;;32.30;;
27383;SDS011;14851;51.166;4.760;2023-04-29T05:35:14;39.13;;;30.80;;
27383;SDS011;14851;51.166;4.760;2023-04-29T05:37:40;43.10;;;31.00;;
27383;SDS011;14851;51.166;4.760;2023-04-29T05:40:32;37.05;;;29.63;;
27383;SDS011;14851;51.166;4.760;2023-04-29T05:43:14;37.63;;;30.05;;
27383;SDS011;14851;51.166;4.760;2023-04-29T05:45:40;36.60;;;29.05;;
27383;SDS011;14851;51.166;4.760;2023-04-29T05:48:06;35.70;;;28.95;;
27383;SDS011;14851;51.166;4.760;2023-04-29T05:50:33;34.30;;;27.42;;
27383;SDS011;14851;51.166;4.760;2023-04-29T05:52:59;39.78;;;30.70;;
27383;SDS011;14851;51.166;4.760;2023-04-29T05:55:25;31.75;;;27.58;;
27383;SDS011;14851;51.166;4.760;2023-04-29T05:57:51;34.55;;;27.35;;
27383;SDS011;14851;51.166;4.760;2023-04-29T06:00:19;30.27;;;27.05;;
27383;SDS011;14851;51.166;4.760;2023-04-29T06:02:45;33.10;;;27.48;;
27383;SDS011;14851;51.166;4.760;2023-04-29T06:05:13;29.77;;;26.05;;
27383;SDS011;14851;51.166;4.760;2023-04-29T06:07:59;37.30;;;28.60;;
27383;SDS011;14851;51.166;4.760;2023-04-29T06:11:04;34.85;;;27.20;;
27383;SDS011;14851;51.166;4.760;2023-04-29T06:13:31;33.15;;;27.77;;
27383;SDS011;14851;51.166;4.760;2023-04-29T06:15:57;36.22;;;27.10;;
27383;SDS011;14851;51.166;4.760;2023-04-29T06:18:28;35.72;;;27.92;;
27383;SDS011;14851;51.166;4.760;2023-04-29T06:20:54;28.13;;;24.55;;
27383;SDS011;14851;51.166;4.760;2023-04-29T06:23:19;33.65;;;28.00;;
27383;SDS011;14851;51.166;4.760;2023-04-29T06:25:46;36.28;;;28.30;;
27383;SDS011;14851;51.166;4.760;2023-04-29T06:28:12;34.30;;;28.05;;
27383;SDS011;14851;51.166;4.760;2023-04-29T06:30:39;33.53;;;25.85;;
27383;SDS011;14851;51.166;4.760;2023-04-29T06:33:06;32.83;;;26.98;;
27383;SDS011;14851;51.166;4.760;2023-04-29T06:35:32;37.60;;;28.15;;
27383;SDS011;14851;51.166;4.760;2023-04-29T06:37:58;31.98;;;28.05;;
27383;SDS011;14851;51.166;4.760;2023-04-29T06:40:50;34.58;;;28.48;;
27383;SDS011;14851;51.166;4.760;2023-04-29T06:43:35;33.35;;;27.95;;
27383;SDS011;14851;51.166;4.760;2023-04-29T06:46:20;39.70;;;30.55;;
27383;SDS011;14851;51.166;4.760;2023-04-29T06:49:18;37.47;;;29.92;;
27383;SDS011;14851;51.166;4.760;2023-04-29T06:51:44;37.30;;;30.98;;
27383;SDS011;14851;51.166;4.760;2023-04-29T06:54:10;37.53;;;30.73;;
27383;SDS011;14851;51.166;4.760;2023-04-29T06:56:35;38.42;;;30.42;;
27383;SDS011;14851;51.166;4.760;2023-04-29T06:59:01;41.67;;;32.40;;
27383;SDS011;14851;51.166;4.760;2023-04-29T07:01:28;36.45;;;30.08;;
27383;SDS011;14851;51.166;4.760;2023-04-29T07:03:54;38.40;;;30.45;;
27383;SDS011;14851;51.166;4.760;2023-04-29T07:06:20;37.55;;;30.73;;
27383;SDS011;14851;51.166;4.760;2023-04-29T07:08:46;35.97;;;28.50;;
27383;SDS011;14851;51.166;4.760;2023-04-29T07:11:14;36.22;;;29.40;;
27383;SDS011;14851;51.166;4.760;2023-04-29T07:13:39;35.05;;;28.75;;
27383;SDS011;14851;51.166;4.760;2023-04-29T07:16:14;35.80;;;28.92;;
27383;SDS011;14851;51.166;4.760;2023-04-29T07:18:42;33.05;;;27.60;;
27383;SDS011;14851;51.166;4.760;2023-04-29T07:21:11;30.15;;;26.00;;
27383;SDS011;14851;51.166;4.760;2023-04-29T07:23:40;34.78;;;27.13;;
27383;SDS011;14851;51.166;4.760;2023-04-29T07:26:09;34.70;;;26.63;;
27383;SDS011;14851;51.166;4.760;2023-04-29T07:28:43;31.98;;;26.85;;
27383;SDS011;14851;51.166;4.760;2023-04-29T07:31:10;33.35;;;26.42;;
27383;SDS011;14851;51.166;4.760;2023-04-29T07:33:38;34.45;;;25.65;;
27383;SDS011;14851;51.166;4.760;2023-04-29T07:36:04;32.13;;;25.80;;
27383;SDS011;14851;51.166;4.760;2023-04-29T07:38:31;33.80;;;27.00;;
27383;SDS011;14851;51.166;4.760;2023-04-29T07:40:58;33.50;;;24.90;;
27383;SDS011;14851;51.166;4.760;2023-04-29T07:43:27;31.50;;;26.00;;
27383;SDS011;14851;51.166;4.760;2023-04-29T07:45:53;32.53;;;26.65;;
27383;SDS011;14851;51.166;4.760;2023-04-29T07:48:19;31.63;;;25.50;;
27383;SDS011;14851;51.166;4.760;2023-04-29T07:50:46;33.70;;;24.77;;
27383;SDS011;14851;51.166;4.760;2023-04-29T07:53:11;28.70;;;23.92;;
27383;SDS011;14851;51.166;4.760;2023-04-29T07:55:37;29.65;;;24.17;;
27383;SDS011;14851;51.166;4.760;2023-04-29T07:58:04;32.72;;;25.08;;
27383;SDS011;14851;51.166;4.760;2023-04-29T08:00:30;30.55;;;25.08;;
27383;SDS011;14851;51.166;4.760;2023-04-29T08:02:56;30.00;;;23.42;;
27383;SDS011;14851;51.166;4.760;2023-04-29T08:05:22;31.75;;;25.08;;
27383;SDS011;14851;51.166;4.760;2023-04-29T08:07:49;30.90;;;23.92;;
27383;SDS011;14851;51.166;4.760;2023-04-29T08:10:18;28.17;;;21.90;;
27383;SDS011;14851;51.166;4.760;2023-04-29T08:12:46;27.45;;;21.80;;
27383;SDS011;14851;51.166;4.760;2023-04-29T08:15:13;29.83;;;25.05;;
27383;SDS011;14851;51.166;4.760;2023-04-29T08:17:39;28.02;;;22.40;;
27383;SDS011;14851;51.166;4.760;2023-04-29T08:20:08;30.67;;;24.33;;
27383;SDS011;14851;51.166;4.760;2023-04-29T08:22:38;29.58;;;24.15;;
27383;SDS011;14851;51.166;4.760;2023-04-29T08:25:04;28.60;;;24.73;;
27383;SDS011;14851;51.166;4.760;2023-04-29T08:27:33;27.10;;;24.20;;
27383;SDS011;14851;51.166;4.760;2023-04-29T08:29:59;28.73;;;23.10;;
27383;SDS011;14851;51.166;4.760;2023-04-29T08:32:25;31.65;;;24.65;;
27383;SDS011;14851;51.166;4.760;2023-04-29T08:34:53;30.50;;;25.67;;
27383;SDS011;14851;51.166;4.760;2023-04-29T08:37:21;33.38;;;26.25;;
27383;SDS011;14851;51.166;4.760;2023-04-29T08:39:47;31.17;;;25.38;;
27383;SDS011;14851;51.166;4.760;2023-04-29T08:42:13;29.55;;;23.95;;
27383;SDS011;14851;51.166;4.760;2023-04-29T08:44:48;33.42;;;23.73;;
27383;SDS011;14851;51.166;4.760;2023-04-29T08:47:19;31.90;;;23.35;;
27383;SDS011;14851;51.166;4.760;2023-04-29T08:49:45;27.00;;;23.40;;
27383;SDS011;14851;51.166;4.760;2023-04-29T08:52:10;27.30;;;23.60;;
27383;SDS011;14851;51.166;4.760;2023-04-29T08:54:36;27.00;;;23.88;;
27383;SDS011;14851;51.166;4.760;2023-04-29T08:57:02;29.85;;;24.13;;
27383;SDS011;14851;51.166;4.760;2023-04-29T08:59:30;26.00;;;21.58;;
27383;SDS011;14851;51.166;4.760;2023-04-29T09:01:56;28.23;;;21.63;;
27383;SDS011;14851;51.166;4.760;2023-04-29T09:07:08;30.73;;;22.45;;
27383;SDS011;14851;51.166;4.760;2023-04-29T09:09:37;30.02;;;23.08;;
27383;SDS011;14851;51.166;4.760;2023-04-29T09:12:04;31.13;;;22.55;;
27383;SDS011;14851;51.166;4.760;2023-04-29T09:14:30;23.42;;;19.33;;
27383;SDS011;14851;51.166;4.760;2023-04-29T09:17:00;22.73;;;18.85;;
27383;SDS011;14851;51.166;4.760;2023-04-29T09:19:29;25.80;;;20.52;;
27383;SDS011;14851;51.166;4.760;2023-04-29T09:22:00;22.33;;;18.63;;
27383;SDS011;14851;51.166;4.760;2023-04-29T09:24:27;22.00;;;17.77;;
27383;SDS011;14851;51.166;4.760;2023-04-29T09:26:55;21.27;;;17.17;;
27383;SDS011;14851;51.166;4.760;2023-04-29T09:29:24;22.33;;;16.75;;
27383;SDS011;14851;51.166;4.760;2023-04-29T09:31:51;18.63;;;16.67;;
27383;SDS011;14851;51.166;4.760;2023-04-29T09:34:34;21.63;;;16.13;;
27383;SDS011;14851;51.166;4.760;2023-04-29T09:37:24;17.30;;;14.85;;
27383;SDS011;14851;51.166;4.760;2023-04-29T09:39:52;19.77;;;15.98;;
27383;SDS011;14851;51.166;4.760;2023-04-29T09:42:18;17.85;;;14.90;;
27383;SDS011;14851;51.166;4.760;2023-04-29T09:44:49;17.42;;;14.40;;
27383;SDS011;14851;51.166;4.760;2023-04-29T09:47:16;17.55;;;15.68;;
27383;SDS011;14851;51.166;4.760;2023-04-29T09:49:42;18.02;;;14.85;;
27383;SDS011;14851;51.166;4.760;2023-04-29T09:52:11;17.30;;;15.18;;
27383;SDS011;14851;51.166;4.760;2023-04-29T09:54:38;16.65;;;14.27;;
27383;SDS011;14851;51.166;4.760;2023-04-29T09:57:06;19.60;;;15.60;;
27383;SDS011;14851;51.166;4.760;2023-04-29T09:59:34;16.00;;;14.30;;
27383;SDS011;14851;51.166;4.760;2023-04-29T10:02:03;19.65;;;16.15;;
27383;SDS011;14851;51.166;4.760;2023-04-29T10:04:34;16.48;;;14.77;;
27383;SDS011;14851;51.166;4.760;2023-04-29T10:07:06;18.88;;;14.30;;
27383;SDS011;14851;51.166;4.760;2023-04-29T10:09:33;17.65;;;15.32;;
27383;SDS011;14851;51.166;4.760;2023-04-29T10:12:03;20.83;;;15.02;;
27383;SDS011;14851;51.166;4.760;2023-04-29T10:14:31;18.95;;;15.98;;
27383;SDS011;14851;51.166;4.760;2023-04-29T10:17:17;18.35;;;16.30;;
27383;SDS011;14851;51.166;4.760;2023-04-29T10:20:03;23.63;;;16.48;;
27383;SDS011;14851;51.166;4.760;2023-04-29T10:22:41;17.67;;;15.85;;
27383;SDS011;14851;51.166;4.760;2023-04-29T10:25:11;19.55;;;17.45;;
27383;SDS011;14851;51.166;4.760;2023-04-29T10:27:39;17.73;;;15.93;;
27383;SDS011;14851;51.166;4.760;2023-04-29T10:30:13;17.75;;;15.73;;
27383;SDS011;14851;51.166;4.760;2023-04-29T10:32:40;15.00;;;13.27;;
27383;SDS011;14851;51.166;4.760;2023-04-29T10:35:08;16.55;;;13.90;;
27383;SDS011;14851;51.166;4.760;2023-04-29T10:37:45;17.10;;;13.48;;
27383;SDS011;14851;51.166;4.760;2023-04-29T10:40:27;15.30;;;13.40;;
27383;SDS011;14851;51.166;4.760;2023-04-29T10:43:09;14.82;;;12.13;;
27383;SDS011;14851;51.166;4.760;2023-04-29T10:45:35;13.27;;;11.57;;
27383;SDS011;14851;51.166;4.760;2023-04-29T10:53:14;14.05;;;12.57;;
27383;SDS011;14851;51.166;4.760;2023-04-29T10:55:46;12.63;;;11.35;;
27383;SDS011;14851;51.166;4.760;2023-04-29T11:00:59;15.27;;;12.70;;
27383;SDS011;14851;51.166;4.760;2023-04-29T11:03:44;13.75;;;12.27;;
27383;SDS011;14851;51.166;4.760;2023-04-29T11:06:12;15.00;;;11.27;;
27383;SDS011;14851;51.166;4.760;2023-04-29T11:08:39;13.38;;;10.60;;
27383;SDS011;14851;51.166;4.760;2023-04-29T11:11:08;12.20;;;10.77;;
27383;SDS011;14851;51.166;4.760;2023-04-29T11:13:37;12.98;;;11.20;;
27383;SDS011;14851;51.166;4.760;2023-04-29T11:18:30;12.05;;;10.75;;
27383;SDS011;14851;51.166;4.760;2023-04-29T11:23:35;15.43;;;10.88;;
27383;SDS011;14851;51.166;4.760;2023-04-29T11:26:01;13.20;;;10.65;;
27383;SDS011;14851;51.166;4.760;2023-04-29T11:28:28;15.73;;;11.38;;
27383;SDS011;14851;51.166;4.760;2023-04-29T11:30:56;15.20;;;11.68;;
27383;SDS011;14851;51.166;4.760;2023-04-29T11:33:22;14.25;;;10.77;;
27383;SDS011;14851;51.166;4.760;2023-04-29T11:35:49;12.25;;;10.95;;
27383;SDS011;14851;51.166;4.760;2023-04-29T11:38:16;14.65;;;10.93;;
27383;SDS011;14851;51.166;4.760;2023-04-29T11:40:50;13.68;;;10.93;;
27383;SDS011;14851;51.166;4.760;2023-04-29T11:43:21;14.05;;;11.43;;
27383;SDS011;14851;51.166;4.760;2023-04-29T11:45:48;14.23;;;10.88;;
27383;SDS011;14851;51.166;4.760;2023-04-29T11:48:17;14.60;;;11.02;;
27383;SDS011;14851;51.166;4.760;2023-04-29T11:50:44;11.50;;;9.98;;
27383;SDS011;14851;51.166;4.760;2023-04-29T11:53:11;12.82;;;11.48;;
27383;SDS011;14851;51.166;4.760;2023-04-29T11:55:37;14.05;;;11.02;;
27383;SDS011;14851;51.166;4.760;2023-04-29T11:58:10;13.00;;;10.13;;
27383;SDS011;14851;51.166;4.760;2023-04-29T12:00:36;11.13;;;9.93;;
27383;SDS011;14851;51.166;4.760;2023-04-29T12:03:15;11.07;;;8.90;;
27383;SDS011;14851;51.166;4.760;2023-04-29T12:08:14;13.13;;;9.68;;
27383;SDS011;14851;51.166;4.760;2023-04-29T12:10:40;10.82;;;9.73;;
27383;SDS011;14851;51.166;4.760;2023-04-29T12:13:06;11.00;;;9.20;;
27383;SDS011;14851;51.166;4.760;2023-04-29T12:15:32;11.85;;;10.43;;
27383;SDS011;14851;51.166;4.760;2023-04-29T12:17:59;15.10;;;10.50;;
27383;SDS011;14851;51.166;4.760;2023-04-29T12:20:26;12.55;;;10.13;;
27383;SDS011;14851;51.166;4.760;2023-04-29T12:22:53;12.75;;;9.45;;
27383;SDS011;14851;51.166;4.760;2023-04-29T12:25:25;11.43;;;8.27;;
27383;SDS011;14851;51.166;4.760;2023-04-29T12:27:57;9.82;;;7.53;;
27383;SDS011;14851;51.166;4.760;2023-04-29T12:30:24;9.38;;;7.75;;
27383;SDS011;14851;51.166;4.760;2023-04-29T12:32:50;8.23;;;7.05;;
27383;SDS011;14851;51.166;4.760;2023-04-29T12:35:23;10.05;;;8.88;;
27383;SDS011;14851;51.166;4.760;2023-04-29T12:37:49;10.52;;;8.05;;
27383;SDS011;14851;51.166;4.760;2023-04-29T12:40:15;10.98;;;8.57;;
27383;SDS011;14851;51.166;4.760;2023-04-29T12:42:42;13.68;;;9.65;;
27383;SDS011;14851;51.166;4.760;2023-04-29T12:45:30;11.57;;;8.53;;
27383;SDS011;14851;51.166;4.760;2023-04-29T12:47:59;10.93;;;8.88;;
27383;SDS011;14851;51.166;4.760;2023-04-29T12:50:35;9.57;;;8.55;;
27383;SDS011;14851;51.166;4.760;2023-04-29T12:53:05;12.52;;;9.43;;
27383;SDS011;14851;51.166;4.760;2023-04-29T12:55:39;14.35;;;9.50;;
27383;SDS011;14851;51.166;4.760;2023-04-29T12:58:05;11.70;;;8.65;;
27383;SDS011;14851;51.166;4.760;2023-04-29T13:00:33;10.40;;;8.38;;
27383;SDS011;14851;51.166;4.760;2023-04-29T13:03:01;9.65;;;8.07;;
27383;SDS011;14851;51.166;4.760;2023-04-29T13:05:28;11.00;;;9.25;;
27383;SDS011;14851;51.166;4.760;2023-04-29T13:07:54;10.68;;;9.00;;
27383;SDS011;14851;51.166;4.760;2023-04-29T13:10:23;12.68;;;8.80;;
27383;SDS011;14851;51.166;4.760;2023-04-29T13:12:49;13.15;;;9.85;;
27383;SDS011;14851;51.166;4.760;2023-04-29T13:15:15;10.05;;;8.75;;
27383;SDS011;14851;51.166;4.760;2023-04-29T13:17:41;9.68;;;7.80;;
27383;SDS011;14851;51.166;4.760;2023-04-29T13:20:07;9.85;;;7.97;;
27383;SDS011;14851;51.166;4.760;2023-04-29T13:22:34;10.50;;;8.30;;
27383;SDS011;14851;51.166;4.760;2023-04-29T13:25:03;9.90;;;7.75;;
27383;SDS011;14851;51.166;4.760;2023-04-29T13:27:31;8.32;;;7.18;;
27383;SDS011;14851;51.166;4.760;2023-04-29T13:29:57;9.38;;;7.45;;
27383;SDS011;14851;51.166;4.760;2023-04-29T13:32:25;9.75;;;7.50;;
27383;SDS011;14851;51.166;4.760;2023-04-29T13:34:51;8.80;;;6.72;;
27383;SDS011;14851;51.166;4.760;2023-04-29T13:37:20;9.25;;;6.63;;
27383;SDS011;14851;51.166;4.760;2023-04-29T13:39:46;9.90;;;7.93;;
27383;SDS011;14851;51.166;4.760;2023-04-29T13:42:12;11.52;;;7.93;;
27383;SDS011;14851;51.166;4.760;2023-04-29T13:44:38;9.93;;;7.00;;
27383;SDS011;14851;51.166;4.760;2023-04-29T13:47:09;11.73;;;7.10;;
27383;SDS011;14851;51.166;4.760;2023-04-29T13:49:36;9.52;;;7.15;;
27383;SDS011;14851;51.166;4.760;2023-04-29T13:52:08;10.90;;;7.47;;
27383;SDS011;14851;51.166;4.760;2023-04-29T13:54:35;9.10;;;7.10;;
27383;SDS011;14851;51.166;4.760;2023-04-29T13:57:01;9.10;;;6.38;;
27383;SDS011;14851;51.166;4.760;2023-04-29T13:59:28;7.82;;;6.40;;
27383;SDS011;14851;51.166;4.760;2023-04-29T14:01:58;9.57;;;6.75;;
27383;SDS011;14851;51.166;4.760;2023-04-29T14:04:25;10.25;;;6.43;;
27383;SDS011;14851;51.166;4.760;2023-04-29T14:06:55;9.70;;;6.50;;
27383;SDS011;14851;51.166;4.760;2023-04-29T14:09:22;8.50;;;7.22;;
27383;SDS011;14851;51.166;4.760;2023-04-29T14:11:48;9.25;;;7.03;;
27383;SDS011;14851;51.166;4.760;2023-04-29T14:14:14;10.40;;;7.47;;
27383;SDS011;14851;51.166;4.760;2023-04-29T14:16:41;8.15;;;6.95;;
27383;SDS011;14851;51.166;4.760;2023-04-29T14:19:07;8.30;;;6.72;;
27383;SDS011;14851;51.166;4.760;2023-04-29T14:21:33;9.50;;;6.75;;
27383;SDS011;14851;51.166;4.760;2023-04-29T14:23:59;8.45;;;6.03;;
27383;SDS011;14851;51.166;4.760;2023-04-29T14:26:29;8.23;;;6.57;;
27383;SDS011;14851;51.166;4.760;2023-04-29T14:28:56;9.02;;;6.93;;
27383;SDS011;14851;51.166;4.760;2023-04-29T14:31:27;8.00;;;6.47;;
27383;SDS011;14851;51.166;4.760;2023-04-29T14:33:54;8.55;;;6.32;;
27383;SDS011;14851;51.166;4.760;2023-04-29T14:36:23;9.27;;;7.45;;
27383;SDS011;14851;51.166;4.760;2023-04-29T14:38:50;10.35;;;6.13;;
27383;SDS011;14851;51.166;4.760;2023-04-29T14:41:16;8.38;;;5.90;;
27383;SDS011;14851;51.166;4.760;2023-04-29T14:43:47;7.32;;;5.95;;
27383;SDS011;14851;51.166;4.760;2023-04-29T14:46:18;8.30;;;6.05;;
27383;SDS011;14851;51.166;4.760;2023-04-29T14:48:48;7.47;;;5.72;;
27383;SDS011;14851;51.166;4.760;2023-04-29T14:51:14;7.95;;;6.85;;
27383;SDS011;14851;51.166;4.760;2023-04-29T14:53:40;7.57;;;5.78;;
27383;SDS011;14851;51.166;4.760;2023-04-29T14:56:07;7.78;;;5.82;;
27383;SDS011;14851;51.166;4.760;2023-04-29T14:58:35;8.77;;;6.18;;
27383;SDS011;14851;51.166;4.760;2023-04-29T15:01:00;8.55;;;5.95;;
27383;SDS011;14851;51.166;4.760;2023-04-29T15:03:29;9.65;;;6.43;;
27383;SDS011;14851;51.166;4.760;2023-04-29T15:06:02;8.02;;;6.70;;
27383;SDS011;14851;51.166;4.760;2023-04-29T15:08:29;10.15;;;6.68;;
27383;SDS011;14851;51.166;4.760;2023-04-29T15:10:55;11.70;;;6.30;;
27383;SDS011;14851;51.166;4.760;2023-04-29T15:13:23;6.63;;;5.93;;